createdAt,value
2017-11-28T00:01:45.952Z,67.70
2017-11-28T00:04:19.112Z,66.99
2017-11-28T00:06:48.196Z,67.38
2017-11-28T00:09:18.134Z,67.84
2017-11-28T00:11:47.151Z,68.03
2017-11-28T00:14:19.695Z,68.61
2017-11-28T00:19:24.087Z,68.67
2017-11-28T00:21:58.792Z,68.62
2017-11-28T00:24:27.851Z,68.26
2017-11-28T00:26:57.928Z,68.48
2017-11-28T00:29:26.959Z,69.24
2017-11-28T00:32:01.199Z,70.43
2017-11-28T00:34:30.231Z,70.73
2017-11-28T00:36:59.266Z,71.53
2017-11-28T00:39:28.283Z,72.54
2017-11-28T00:41:57.331Z,72.27
2017-11-28T00:44:26.359Z,72.98
2017-11-28T00:46:59.766Z,72.77
2017-11-28T00:49:29.078Z,72.59
2017-11-28T00:52:00.050Z,73.57
2017-11-28T00:54:29.083Z,72.90
2017-11-28T00:56:58.140Z,73.01
2017-11-28T00:59:27.184Z,72.91
2017-11-28T01:01:56.206Z,72.06
2017-11-28T01:04:25.228Z,72.19
2017-11-28T01:09:30.075Z,72.12
2017-11-28T01:11:59.115Z,71.82
2017-11-28T01:14:29.042Z,72.17
2017-11-28T01:16:58.543Z,72.36
2017-11-28T01:19:31.015Z,72.16
2017-11-28T01:22:00.245Z,72.39
2017-11-28T01:24:29.303Z,72.51
2017-11-28T01:26:58.326Z,72.67
2017-11-28T01:29:28.319Z,72.55
2017-11-28T01:31:57.554Z,72.26
2017-11-28T01:34:27.529Z,72.86
2017-11-28T01:39:36.791Z,72.32
2017-11-28T01:42:05.874Z,71.69
2017-11-28T01:44:34.898Z,72.29
2017-11-28T01:47:03.944Z,72.45
2017-11-28T01:49:40.813Z,72.52
2017-11-28T01:52:09.862Z,72.77
2017-11-28T01:59:49.363Z,71.53
2017-11-28T02:02:19.457Z,71.87
2017-11-28T02:04:48.492Z,72.04
2017-11-28T02:07:18.471Z,73.23
2017-11-28T02:12:22.820Z,72.93
2017-11-28T02:14:51.859Z,72.98
2017-11-28T02:17:25.435Z,73.11
2017-11-28T02:19:54.474Z,72.70
2017-11-28T02:22:23.575Z,73.08
2017-11-28T02:24:52.601Z,73.71
2017-11-28T02:29:56.897Z,73.88
2017-11-28T02:32:25.960Z,74.17
2017-11-28T02:34:55.031Z,74.29
2017-11-28T02:40:00.267Z,76.69
2017-11-28T02:42:29.324Z,76.80
2017-11-28T02:44:58.326Z,78.32
2017-11-28T02:47:27.370Z,78.19
2017-11-28T02:50:02.097Z,78.67
2017-11-28T02:52:31.136Z,77.97
2017-11-28T02:57:54.546Z,78.70
2017-11-28T03:00:23.563Z,78.96
2017-11-28T03:02:52.616Z,78.74
2017-11-28T03:05:21.659Z,79.44
2017-11-28T03:07:51.612Z,79.48
2017-11-28T03:10:28.256Z,79.10
2017-11-28T03:13:01.924Z,78.20
2017-11-28T03:15:31.960Z,78.91
2017-11-28T03:18:04.578Z,79.31
2017-11-28T03:20:36.150Z,78.95
2017-11-28T03:25:40.424Z,78.91
2017-11-28T03:31:26.853Z,78.95
2017-11-28T03:33:59.331Z,78.97
2017-11-28T03:36:28.359Z,78.76
2017-11-28T03:38:57.390Z,78.91
2017-11-28T03:41:26.443Z,79.11
2017-11-28T03:43:55.509Z,78.30
2017-11-28T03:46:28.208Z,79.20
2017-11-28T03:51:40.467Z,77.62
2017-11-28T03:54:11.513Z,77.37
2017-11-28T03:56:40.583Z,77.03
2017-11-28T03:59:09.601Z,76.99
2017-11-28T04:04:13.862Z,77.35
2017-11-28T04:06:42.887Z,77.33
2017-11-28T04:09:12.831Z,77.53
2017-11-28T04:11:41.871Z,77.96
2017-11-28T04:14:15.653Z,76.47
2017-11-28T04:16:44.666Z,76.12
2017-11-28T04:19:15.737Z,76.09
2017-11-28T04:21:44.751Z,75.83
2017-11-28T04:24:14.731Z,76.29
2017-11-28T04:26:43.800Z,76.34
2017-11-28T04:29:12.832Z,76.42
2017-11-28T04:31:41.878Z,76.86
2017-11-28T04:34:11.832Z,76.62
2017-11-28T04:36:40.977Z,75.80
2017-11-28T04:39:10.038Z,75.88
2017-11-28T04:41:39.399Z,75.90
2017-11-28T04:46:43.491Z,75.68
2017-11-28T04:49:17.454Z,76.22
2017-11-28T04:51:46.504Z,74.41
2017-11-28T04:54:19.074Z,75.00
2017-11-28T04:56:48.168Z,74.55
2017-11-28T04:59:17.197Z,71.81
2017-11-28T05:01:46.252Z,71.12
2017-11-28T05:06:51.469Z,70.97
2017-11-28T05:09:20.546Z,70.63
2017-11-28T05:11:49.579Z,71.23
2017-11-28T05:14:18.641Z,69.84
2017-11-28T05:16:47.659Z,69.45
2017-11-28T05:19:24.303Z,69.92
2017-11-28T05:21:53.339Z,70.27
2017-11-28T05:24:22.394Z,69.34
2017-11-28T05:26:51.448Z,70.07
2017-11-28T05:29:21.410Z,70.76
2017-11-28T05:31:50.431Z,71.80
2017-11-28T05:34:19.491Z,72.47
2017-11-28T05:39:23.802Z,69.72
2017-11-28T05:41:52.847Z,69.79
2017-11-28T05:44:21.954Z,69.02
2017-11-28T05:46:51.965Z,67.90
2017-11-28T05:49:20.991Z,68.77
2017-11-28T05:51:51.289Z,68.01
2017-11-28T05:54:20.332Z,68.35
2017-11-28T05:56:49.379Z,67.28
2017-11-28T05:59:18.460Z,67.36
2017-11-28T06:01:48.394Z,66.52
2017-11-28T06:04:17.441Z,66.59
2017-11-28T06:06:46.454Z,67.65
2017-11-28T06:09:15.527Z,67.97
2017-11-28T06:11:44.578Z,67.51
2017-11-28T06:14:13.611Z,68.11
2017-11-28T06:16:42.654Z,68.13
2017-11-28T06:19:11.680Z,68.98
2017-11-28T06:24:16.815Z,68.48
2017-11-28T06:26:46.920Z,68.47
2017-11-28T06:29:15.950Z,68.27
2017-11-28T06:31:45.032Z,68.81
2017-11-28T06:34:14.047Z,69.72
2017-11-28T06:36:43.078Z,69.81
2017-11-28T06:39:12.224Z,69.27
2017-11-28T06:41:42.204Z,70.13
2017-11-28T06:44:11.239Z,70.47
2017-11-28T06:49:19.466Z,70.07
2017-11-28T06:51:49.455Z,69.92
2017-11-28T06:54:18.536Z,70.50
2017-11-28T06:56:53.328Z,70.62
2017-11-28T06:59:27.793Z,70.98
2017-11-28T07:01:57.846Z,70.93
2017-11-28T07:07:03.732Z,69.75
2017-11-28T07:09:33.687Z,69.82
2017-11-28T07:12:02.730Z,69.90
2017-11-28T07:17:09.947Z,69.42
2017-11-28T07:19:40.879Z,68.87
2017-11-28T07:22:09.903Z,68.41
2017-11-28T07:24:46.355Z,68.93
2017-11-28T07:27:15.649Z,68.17
2017-11-28T07:29:44.667Z,67.67
2017-11-28T07:32:14.613Z,67.80
2017-11-28T07:34:43.656Z,68.25
2017-11-28T07:37:16.719Z,67.33
2017-11-28T07:42:20.982Z,67.26
2017-11-28T07:44:55.998Z,67.37
2017-11-28T07:47:25.128Z,66.65
2017-11-28T07:49:58.579Z,66.88
2017-11-28T07:55:17.287Z,66.11
2017-11-28T07:57:46.310Z,65.14
2017-11-28T08:05:26.507Z,64.82
2017-11-28T08:10:30.744Z,64.73
2017-11-28T08:12:59.786Z,63.93
2017-11-28T08:15:28.832Z,64.71
2017-11-28T08:18:05.575Z,63.49
2017-11-28T08:20:34.629Z,63.48
2017-11-28T08:23:03.715Z,63.41
2017-11-28T08:25:32.877Z,63.25
2017-11-28T08:28:03.816Z,62.48
2017-11-28T08:30:32.845Z,62.95
2017-11-28T08:33:02.826Z,63.40
2017-11-28T08:35:31.960Z,62.79
2017-11-28T08:38:01.022Z,62.72
2017-11-28T08:40:30.035Z,62.37
2017-11-28T08:42:59.074Z,61.78
2017-11-28T08:45:29.024Z,61.26
2017-11-28T08:48:06.139Z,60.80
2017-11-28T08:50:40.322Z,59.85
2017-11-28T08:55:46.674Z,58.69
2017-11-28T08:58:16.617Z,58.43
2017-11-28T09:00:49.804Z,57.52
2017-11-28T09:03:18.836Z,55.35
2017-11-28T09:05:54.405Z,54.74
2017-11-28T09:11:00.746Z,54.67
2017-11-28T09:13:34.748Z,55.64
2017-11-28T09:16:03.884Z,54.92
2017-11-28T09:18:32.961Z,56.92
2017-11-28T09:21:02.002Z,57.47
2017-11-28T09:23:31.042Z,57.03
2017-11-28T09:26:00.151Z,57.70
2017-11-28T09:28:29.170Z,58.55
2017-11-28T09:30:58.211Z,59.06
2017-11-28T09:36:02.495Z,58.54
2017-11-28T09:38:31.579Z,60.13
2017-11-28T09:41:00.620Z,57.41
2017-11-28T09:43:29.709Z,59.49
2017-11-28T09:45:58.727Z,58.65
2017-11-28T09:48:27.750Z,59.12
2017-11-28T09:50:56.795Z,58.57
2017-11-28T09:53:26.857Z,59.00
2017-11-28T09:55:55.921Z,57.90
2017-11-28T09:58:28.190Z,58.79
2017-11-28T10:00:57.231Z,58.26
2017-11-28T10:03:27.219Z,58.13
2017-11-28T10:05:56.260Z,58.22
2017-11-28T10:08:28.358Z,59.61
2017-11-28T10:10:57.387Z,58.58
2017-11-28T10:13:31.922Z,58.22
2017-11-28T10:16:00.957Z,58.64
2017-11-28T10:18:29.999Z,58.35
2017-11-28T10:20:59.027Z,58.22
2017-11-28T10:23:28.067Z,58.00
2017-11-28T10:25:57.103Z,58.74
2017-11-28T10:28:27.097Z,59.74
2017-11-28T10:30:56.126Z,58.20
2017-11-28T10:33:26.127Z,59.09
2017-11-28T10:35:55.184Z,59.75
2017-11-28T10:38:24.265Z,59.16
2017-11-28T10:40:53.307Z,58.80
2017-11-28T10:45:58.540Z,59.28
2017-11-28T10:48:30.946Z,59.76
2017-11-28T10:51:00.900Z,59.07
2017-11-28T10:53:34.564Z,60.14
2017-11-28T10:56:03.633Z,60.98
2017-11-28T10:58:38.747Z,60.63
2017-11-28T11:01:09.751Z,61.80
2017-11-28T11:03:39.981Z,61.56
2017-11-28T11:06:11.114Z,60.85
2017-11-28T11:08:41.598Z,64.69
2017-11-28T11:11:10.770Z,64.00
2017-11-28T11:13:41.912Z,65.63
2017-11-28T11:18:48.146Z,68.04
2017-11-28T11:21:19.131Z,68.86
2017-11-28T11:23:48.168Z,68.07
2017-11-28T11:26:21.106Z,69.03
2017-11-28T11:28:50.151Z,67.50
2017-11-28T11:33:54.395Z,67.04
2017-11-28T11:38:59.548Z,67.97
2017-11-28T11:41:33.326Z,67.21
2017-11-28T11:44:03.303Z,66.48
2017-11-28T11:46:33.360Z,66.83
2017-11-28T11:49:03.333Z,68.09
2017-11-28T11:51:32.576Z,67.42
2017-11-28T11:54:02.841Z,67.86
2017-11-28T11:56:35.503Z,67.63
2017-11-28T11:59:04.623Z,67.63
2017-11-28T12:01:34.770Z,67.59
2017-11-28T12:04:04.021Z,67.38
2017-11-28T12:06:35.034Z,67.21
2017-11-28T12:09:04.090Z,66.64
2017-11-28T12:11:38.692Z,66.77
2017-11-28T12:14:07.802Z,67.01
2017-11-28T12:16:37.824Z,67.22
2017-11-28T12:19:06.850Z,65.41
2017-11-28T12:24:11.281Z,66.13
2017-11-28T12:26:46.315Z,66.18
2017-11-28T12:29:15.364Z,65.61
2017-11-28T12:31:47.623Z,66.11
2017-11-28T12:34:16.707Z,66.13
2017-11-28T12:39:25.012Z,65.62
2017-11-28T12:41:56.034Z,65.44
2017-11-28T12:44:25.138Z,65.35
2017-11-28T12:46:55.151Z,65.79
2017-11-28T12:49:24.199Z,65.24
2017-11-28T12:52:00.610Z,65.12
2017-11-28T12:54:30.503Z,66.03
2017-11-28T12:59:34.726Z,66.46
2017-11-28T13:02:08.568Z,65.42
2017-11-28T13:04:38.611Z,66.17
2017-11-28T13:07:09.636Z,65.93
2017-11-28T13:09:39.730Z,65.99
2017-11-28T13:12:15.772Z,65.83
2017-11-28T13:14:46.499Z,66.10
2017-11-28T13:17:15.539Z,66.39
2017-11-28T13:19:46.207Z,65.90
2017-11-28T13:22:15.247Z,66.53
2017-11-28T13:24:45.218Z,66.31
2017-11-28T13:27:14.274Z,66.79
2017-11-28T13:29:43.680Z,66.97
2017-11-28T13:32:14.688Z,67.43
2017-11-28T13:34:46.612Z,67.49
2017-11-28T13:37:15.778Z,68.10
2017-11-28T13:39:52.519Z,67.19
2017-11-28T13:42:21.780Z,66.45
2017-11-28T13:44:50.818Z,67.47
2017-11-28T13:47:19.866Z,68.59
2017-11-28T13:49:49.929Z,67.79
2017-11-28T13:52:19.865Z,67.93
2017-11-28T13:54:49.473Z,68.31
2017-11-28T13:57:19.015Z,68.56
2017-11-28T13:59:49.452Z,68.14
2017-11-28T14:02:18.463Z,69.00
2017-11-28T14:04:47.532Z,69.94
2017-11-28T14:07:16.563Z,70.70
2017-11-28T14:09:46.609Z,70.64
2017-11-28T14:12:15.668Z,71.30
2017-11-28T14:14:45.953Z,71.80
2017-11-28T14:17:14.974Z,72.63
2017-11-28T14:22:47.533Z,73.12
2017-11-28T14:28:18.907Z,74.50
2017-11-28T14:30:50.240Z,73.46
2017-11-28T14:33:19.261Z,74.44
2017-11-28T14:38:23.479Z,74.20
2017-11-28T14:40:55.427Z,74.02
2017-11-28T14:43:27.801Z,74.73
2017-11-28T14:45:58.768Z,75.39
2017-11-28T14:48:27.814Z,75.16
2017-11-28T14:53:44.223Z,74.48
2017-11-28T14:56:16.736Z,74.33
2017-11-28T14:58:53.471Z,74.25
2017-11-28T15:07:16.159Z,73.41
2017-11-28T15:09:50.846Z,73.40
2017-11-28T15:12:25.315Z,73.88
2017-11-28T15:14:59.899Z,73.16
2017-11-28T15:17:36.565Z,73.09
2017-11-28T15:20:20.074Z,73.68
2017-11-28T15:23:03.344Z,74.20
2017-11-28T15:25:49.151Z,74.84
2017-11-28T15:28:19.129Z,74.03
2017-11-28T15:30:49.076Z,74.03
2017-11-28T15:33:18.117Z,74.52
2017-11-28T15:35:48.085Z,74.46
2017-11-28T15:38:17.123Z,75.98
2017-11-28T15:40:46.195Z,75.82
2017-11-28T15:43:15.342Z,75.48
2017-11-28T15:48:19.452Z,74.67
2017-11-28T15:50:53.455Z,74.68
2017-11-28T15:53:23.428Z,75.53
2017-11-28T15:58:28.808Z,74.75
2017-11-28T16:00:57.842Z,75.03
2017-11-28T16:03:27.695Z,74.56
2017-11-28T16:06:03.707Z,73.93
2017-11-28T16:08:33.900Z,74.87
2017-11-28T16:13:44.620Z,75.57
2017-11-28T16:16:13.721Z,75.09
2017-11-28T16:18:43.566Z,75.50
2017-11-28T16:21:12.994Z,75.76
2017-11-28T16:23:43.452Z,75.75
2017-11-28T16:26:12.491Z,75.55
2017-11-28T16:28:43.989Z,75.36
2017-11-28T16:31:13.053Z,75.42
2017-11-28T16:33:44.043Z,75.36
2017-11-28T16:36:13.170Z,75.25
2017-11-28T16:38:43.957Z,75.23
2017-11-28T16:41:13.005Z,75.87
2017-11-28T16:43:42.041Z,76.99
2017-11-28T16:51:22.315Z,76.83
2017-11-28T16:53:54.973Z,77.35
2017-11-28T16:56:24.034Z,76.84
2017-11-28T16:58:53.092Z,76.84
2017-11-28T17:01:22.133Z,76.38
2017-11-28T17:03:51.158Z,75.57
2017-11-28T17:06:20.486Z,75.20
2017-11-28T17:08:50.740Z,74.70
2017-11-28T17:11:19.908Z,74.24
2017-11-28T17:13:50.943Z,74.34
2017-11-28T17:16:19.982Z,74.93
2017-11-28T17:18:50.524Z,74.68
2017-11-28T17:21:19.544Z,74.64
2017-11-28T17:23:49.603Z,74.24
2017-11-28T17:26:18.665Z,74.52
2017-11-28T17:29:01.147Z,74.42
2017-11-28T17:31:30.993Z,73.42
2017-11-28T17:34:09.263Z,73.37
2017-11-28T17:36:38.958Z,73.05
2017-11-28T17:39:09.971Z,73.70
2017-11-28T17:44:16.288Z,73.56
2017-11-28T17:46:45.322Z,73.13
2017-11-28T17:51:49.548Z,73.53
2017-11-28T17:54:18.584Z,73.46
2017-11-28T17:59:22.861Z,74.21
2017-11-28T18:01:51.927Z,74.09
2017-11-28T18:04:21.936Z,74.02
2017-11-28T18:06:51.008Z,74.49
2017-11-28T18:09:20.045Z,74.99
2017-11-28T18:11:49.076Z,74.62
2017-11-28T18:14:18.126Z,74.89
2017-11-28T18:16:48.043Z,75.56
2017-11-28T18:19:17.084Z,75.73
2017-11-28T18:21:46.117Z,76.14
2017-11-28T18:24:15.195Z,76.19
2017-11-28T18:26:44.233Z,76.66
2017-11-28T18:31:48.610Z,76.10
2017-11-28T18:34:18.628Z,75.92
2017-11-28T18:36:47.662Z,75.88
2017-11-28T18:39:17.678Z,75.62
2017-11-28T18:41:46.720Z,75.51
2017-11-28T18:44:15.763Z,75.64
2017-11-28T18:46:44.831Z,75.78
2017-11-28T18:49:13.879Z,75.96
2017-11-28T18:51:42.932Z,76.27
2017-11-28T18:54:11.975Z,76.92
2017-11-28T18:56:41.016Z,76.37
2017-11-28T18:59:10.043Z,76.59
2017-11-28T19:01:39.149Z,76.74
2017-11-28T19:04:09.130Z,77.30
2017-11-28T19:06:38.183Z,77.25
2017-11-28T19:09:07.243Z,77.51
2017-11-28T19:11:37.252Z,77.81
2017-11-28T19:14:06.311Z,77.81
2017-11-28T19:16:35.352Z,77.39
2017-11-28T19:21:41.808Z,78.19
2017-11-28T19:24:11.106Z,78.25
2017-11-28T19:26:40.156Z,78.26
2017-11-28T19:29:09.185Z,78.10
2017-11-28T19:31:38.242Z,77.99
2017-11-28T19:34:10.928Z,78.80
2017-11-28T19:36:39.944Z,78.74
2017-11-28T19:39:09.026Z,79.14
2017-11-28T19:41:38.124Z,79.50
2017-11-28T19:46:42.966Z,79.79
2017-11-28T19:51:53.179Z,79.83
2017-11-28T19:54:26.775Z,79.33
2017-11-28T19:57:02.477Z,79.69
2017-11-28T19:59:36.519Z,80.15
2017-11-28T20:02:08.356Z,80.42
2017-11-28T20:04:37.492Z,81.07
2017-11-28T20:07:07.535Z,81.86
2017-11-28T20:09:36.614Z,81.52
2017-11-28T20:12:10.352Z,82.33
2017-11-28T20:14:40.079Z,81.20
2017-11-28T20:17:13.005Z,80.78
2017-11-28T20:19:42.068Z,80.01
2017-11-28T20:22:13.075Z,81.03
2017-11-28T20:24:42.135Z,80.83
2017-11-28T20:27:11.269Z,80.09
2017-11-28T20:29:40.364Z,80.18
2017-11-28T20:32:09.483Z,80.71
2017-11-28T20:34:38.531Z,79.62
2017-11-28T20:37:07.584Z,79.38
2017-11-28T20:39:36.668Z,78.91
2017-11-28T20:42:06.669Z,78.58
2017-11-28T20:44:37.609Z,79.00
2017-11-28T20:49:41.897Z,77.72
2017-11-28T20:52:10.948Z,77.17
2017-11-28T20:54:39.965Z,76.79
2017-11-28T20:57:09.012Z,76.54
2017-11-28T20:59:45.367Z,76.86
2017-11-28T21:02:14.404Z,76.94
2017-11-28T21:04:43.435Z,77.74
2017-11-28T21:07:13.421Z,78.10
2017-11-28T21:09:42.458Z,77.93
2017-11-28T21:12:11.561Z,77.48
2017-11-28T21:14:40.578Z,77.98
2017-11-28T21:17:09.619Z,77.96
2017-11-28T21:19:38.662Z,77.75
2017-11-28T21:22:07.719Z,77.84
2017-11-28T21:24:37.655Z,77.31
2017-11-28T21:27:07.608Z,77.18
2017-11-28T21:29:36.678Z,77.27
2017-11-28T21:32:05.702Z,77.11
2017-11-28T21:34:38.096Z,77.10
2017-11-28T21:37:07.175Z,77.34
2017-11-28T21:39:36.282Z,76.93
2017-11-28T21:42:06.351Z,77.12
2017-11-28T21:44:36.379Z,75.69
2017-11-28T21:47:05.400Z,74.75
2017-11-28T21:49:34.438Z,74.97
2017-11-28T21:52:03.479Z,74.52
2017-11-28T21:54:32.522Z,75.70
2017-11-28T21:57:01.588Z,76.84
2017-11-28T21:59:30.635Z,77.54
2017-11-28T22:01:59.661Z,78.81
2017-11-28T22:04:32.948Z,79.89
2017-11-28T22:09:37.216Z,80.11
2017-11-28T22:12:06.285Z,80.71
2017-11-28T22:17:15.735Z,81.22
2017-11-28T22:22:20.051Z,79.87
2017-11-28T22:24:52.970Z,80.67
2017-11-28T22:27:22.008Z,80.38
2017-11-28T22:29:53.002Z,80.95
2017-11-28T22:32:22.075Z,81.61
2017-11-28T22:34:51.116Z,81.97
2017-11-28T22:37:20.153Z,81.82
2017-11-28T22:39:51.146Z,82.15
2017-11-28T22:42:20.178Z,82.30
2017-11-28T22:44:49.232Z,82.36
2017-11-28T22:47:19.164Z,82.81
2017-11-28T22:49:48.272Z,83.16
2017-11-28T22:52:17.311Z,83.46
2017-11-28T22:54:46.355Z,83.47
2017-11-28T22:57:16.338Z,83.54
2017-11-28T22:59:46.472Z,84.49
2017-11-28T23:02:16.507Z,84.36
2017-11-28T23:04:45.529Z,84.41
2017-11-28T23:07:14.568Z,83.62
2017-11-28T23:09:46.689Z,83.40
2017-11-28T23:12:15.723Z,83.32
2017-11-28T23:14:48.471Z,83.26
2017-11-28T23:17:17.926Z,83.28
2017-11-28T23:19:47.257Z,82.66
2017-11-28T23:22:16.301Z,82.95
2017-11-28T23:24:45.671Z,83.29
2017-11-28T23:27:14.735Z,83.21
2017-11-28T23:29:43.764Z,82.88
2017-11-28T23:32:12.800Z,83.39
2017-11-28T23:34:41.850Z,83.75
2017-11-28T23:37:10.882Z,84.28
2017-11-28T23:42:15.142Z,84.77
2017-11-28T23:44:45.124Z,85.00
2017-11-28T23:47:14.155Z,85.34
2017-11-28T23:49:43.202Z,85.50
2017-11-28T23:52:12.283Z,85.48
2017-11-28T23:54:41.311Z,85.96
2017-11-28T23:57:11.245Z,85.87
